sensor_id;sensor_type;location;lat;lon;timestamp;temperature;humidity
52459;DHT22;38372;52.902;6.024;2024-03-23T00:55:27;5.50;99.90
52459;DHT22;38372;52.902;6.024;2024-03-23T00:57:52;5.50;99.90
52459;DHT22;38372;52.902;6.024;2024-03-23T01:00:18;5.40;99.90
52459;DHT22;38372;52.902;6.024;2024-03-23T01:02:44;5.40;99.90
52459;DHT22;38372;52.902;6.024;2024-03-23T01:05:10;5.30;99.90
52459;DHT22;38372;52.902;6.024;2024-03-23T01:07:36;5.30;99.90
52459;DHT22;38372;52.902;6.024;2024-03-23T01:10:02;5.20;99.90
52459;DHT22;38372;52.902;6.024;2024-03-23T01:12:28;5.10;99.90
52459;DHT22;38372;52.902;6.024;2024-03-23T01:14:53;5.10;99.90
52459;DHT22;38372;52.902;6.024;2024-03-23T01:17:19;5.00;99.90
52459;DHT22;38372;52.902;6.024;2024-03-23T01:19:58;5.00;99.90
52459;DHT22;38372;52.902;6.024;2024-03-23T01:22:24;5.00;99.90
52459;DHT22;38372;52.902;6.024;2024-03-23T01:24:50;5.00;99.90
52459;DHT22;38372;52.902;6.024;2024-03-23T01:27:16;5.00;99.90
52459;DHT22;38372;52.902;6.024;2024-03-23T01:29:42;5.00;99.90
52459;DHT22;38372;52.902;6.024;2024-03-23T01:32:08;5.10;99.90
52459;DHT22;38372;52.902;6.024;2024-03-23T01:34:34;5.00;99.90
52459;DHT22;38372;52.902;6.024;2024-03-23T01:36:59;5.00;99.90
52459;DHT22;38372;52.902;6.024;2024-03-23T01:39:25;5.00;99.90
52459;DHT22;38372;52.902;6.024;2024-03-23T01:41:51;5.00;99.90
52459;DHT22;38372;52.902;6.024;2024-03-23T01:44:17;5.00;99.90
52459;DHT22;38372;52.902;6.024;2024-03-23T01:46:44;5.00;99.90
52459;DHT22;38372;52.902;6.024;2024-03-23T01:49:10;5.00;99.90
52459;DHT22;38372;52.902;6.024;2024-03-23T01:51:37;5.00;99.90
52459;DHT22;38372;52.902;6.024;2024-03-23T01:54:04;4.90;99.90
52459;DHT22;38372;52.902;6.024;2024-03-23T01:56:31;4.90;99.90
52459;DHT22;38372;52.902;6.024;2024-03-23T01:59:00;4.90;99.90
52459;DHT22;38372;52.902;6.024;2024-03-23T02:01:27;4.90;99.90
52459;DHT22;38372;52.902;6.024;2024-03-23T02:03:53;4.80;99.90
52459;DHT22;38372;52.902;6.024;2024-03-23T02:06:19;4.70;99.90
52459;DHT22;38372;52.902;6.024;2024-03-23T02:08:44;4.70;99.90
52459;DHT22;38372;52.902;6.024;2024-03-23T02:11:10;4.70;99.90
52459;DHT22;38372;52.902;6.024;2024-03-23T02:13:36;4.70;99.90
52459;DHT22;38372;52.902;6.024;2024-03-23T02:16:09;4.60;99.90
52459;DHT22;38372;52.902;6.024;2024-03-23T02:18:48;4.60;99.90
52459;DHT22;38372;52.902;6.024;2024-03-23T02:21:15;4.60;99.90
52459;DHT22;38372;52.902;6.024;2024-03-23T02:23:41;4.70;99.90
52459;DHT22;38372;52.902;6.024;2024-03-23T02:26:07;4.60;99.90
52459;DHT22;38372;52.902;6.024;2024-03-23T02:28:34;4.60;99.90
52459;DHT22;38372;52.902;6.024;2024-03-23T02:31:02;4.60;99.90
52459;DHT22;38372;52.902;6.024;2024-03-23T02:33:30;4.60;99.90
52459;DHT22;38372;52.902;6.024;2024-03-23T02:35:56;4.60;99.90
52459;DHT22;38372;52.902;6.024;2024-03-23T02:38:24;4.60;99.90
52459;DHT22;38372;52.902;6.024;2024-03-23T02:40:53;4.60;99.90
52459;DHT22;38372;52.902;6.024;2024-03-23T02:43:19;4.60;99.90
52459;DHT22;38372;52.902;6.024;2024-03-23T02:45:44;4.60;99.90
52459;DHT22;38372;52.902;6.024;2024-03-23T02:48:10;4.60;99.90
52459;DHT22;38372;52.902;6.024;2024-03-23T02:50:36;4.60;99.90
52459;DHT22;38372;52.902;6.024;2024-03-23T02:53:02;4.60;99.90
52459;DHT22;38372;52.902;6.024;2024-03-23T02:55:28;4.60;99.90
52459;DHT22;38372;52.902;6.024;2024-03-23T02:57:53;4.50;99.90
52459;DHT22;38372;52.902;6.024;2024-03-23T03:00:19;4.50;99.90
52459;DHT22;38372;52.902;6.024;2024-03-23T03:02:45;4.50;99.90
52459;DHT22;38372;52.902;6.024;2024-03-23T03:05:11;4.40;99.90
52459;DHT22;38372;52.902;6.024;2024-03-23T03:07:39;4.30;99.90
52459;DHT22;38372;52.902;6.024;2024-03-23T03:10:06;4.30;99.90
52459;DHT22;38372;52.902;6.024;2024-03-23T03:12:34;4.30;99.90
52459;DHT22;38372;52.902;6.024;2024-03-23T03:15:00;4.30;99.90
52459;DHT22;38372;52.902;6.024;2024-03-23T03:17:40;4.30;99.90
52459;DHT22;38372;52.902;6.024;2024-03-23T03:20:06;4.20;99.90
52459;DHT22;38372;52.902;6.024;2024-03-23T03:22:32;4.20;99.90
52459;DHT22;38372;52.902;6.024;2024-03-23T03:24:58;4.20;99.90
52459;DHT22;38372;52.902;6.024;2024-03-23T03:27:25;4.20;99.90
52459;DHT22;38372;52.902;6.024;2024-03-23T03:29:51;4.20;99.90
52459;DHT22;38372;52.902;6.024;2024-03-23T03:32:17;4.20;99.90
52459;DHT22;38372;52.902;6.024;2024-03-23T03:34:43;4.20;99.90
52459;DHT22;38372;52.902;6.024;2024-03-23T03:37:09;4.20;99.90
52459;DHT22;38372;52.902;6.024;2024-03-23T03:39:36;4.20;99.90
52459;DHT22;38372;52.902;6.024;2024-03-23T03:42:02;4.30;99.90
52459;DHT22;38372;52.902;6.024;2024-03-23T03:44:32;4.30;99.90
52459;DHT22;38372;52.902;6.024;2024-03-23T03:46:58;4.30;99.90
52459;DHT22;38372;52.902;6.024;2024-03-23T03:49:23;4.30;99.90
52459;DHT22;38372;52.902;6.024;2024-03-23T03:51:49;4.30;99.90
52459;DHT22;38372;52.902;6.024;2024-03-23T03:54:15;4.20;99.90
52459;DHT22;38372;52.902;6.024;2024-03-23T03:56:41;4.20;99.90
52459;DHT22;38372;52.902;6.024;2024-03-23T03:59:07;4.10;99.90
52459;DHT22;38372;52.902;6.024;2024-03-23T04:01:33;4.10;99.90
52459;DHT22;38372;52.902;6.024;2024-03-23T04:03:59;4.00;99.90
52459;DHT22;38372;52.902;6.024;2024-03-23T04:06:26;4.00;99.90
52459;DHT22;38372;52.902;6.024;2024-03-23T04:08:55;4.00;99.90
52459;DHT22;38372;52.902;6.024;2024-03-23T04:11:21;4.00;99.90
52459;DHT22;38372;52.902;6.024;2024-03-23T04:13:47;4.00;99.90
52459;DHT22;38372;52.902;6.024;2024-03-23T04:16:24;4.00;99.90
52459;DHT22;38372;52.902;6.024;2024-03-23T04:18:57;4.10;99.90
52459;DHT22;38372;52.902;6.024;2024-03-23T04:21:30;4.10;99.90
52459;DHT22;38372;52.902;6.024;2024-03-23T04:23:56;4.10;99.90
52459;DHT22;38372;52.902;6.024;2024-03-23T04:26:22;4.10;99.90
52459;DHT22;38372;52.902;6.024;2024-03-23T04:28:48;4.10;99.90
52459;DHT22;38372;52.902;6.024;2024-03-23T04:31:14;4.20;99.90
52459;DHT22;38372;52.902;6.024;2024-03-23T04:33:39;4.10;99.90
52459;DHT22;38372;52.902;6.024;2024-03-23T04:36:06;4.10;99.90
52459;DHT22;38372;52.902;6.024;2024-03-23T04:38:32;4.20;99.90
52459;DHT22;38372;52.902;6.024;2024-03-23T04:40:59;4.20;99.90
52459;DHT22;38372;52.902;6.024;2024-03-23T04:43:27;4.10;99.90
52459;DHT22;38372;52.902;6.024;2024-03-23T04:45:54;4.10;99.90
52459;DHT22;38372;52.902;6.024;2024-03-23T04:48:22;4.10;99.90
52459;DHT22;38372;52.902;6.024;2024-03-23T04:50:49;4.30;99.90
52459;DHT22;38372;52.902;6.024;2024-03-23T04:53:16;4.20;99.90
52459;DHT22;38372;52.902;6.024;2024-03-23T04:55:42;4.20;99.90
52459;DHT22;38372;52.902;6.024;2024-03-23T04:58:08;4.10;99.90
52459;DHT22;38372;52.902;6.024;2024-03-23T05:00:34;4.00;99.90
52459;DHT22;38372;52.902;6.024;2024-03-23T05:03:00;3.90;99.90
52459;DHT22;38372;52.902;6.024;2024-03-23T05:05:26;3.90;99.90
52459;DHT22;38372;52.902;6.024;2024-03-23T05:07:52;3.80;99.90
52459;DHT22;38372;52.902;6.024;2024-03-23T05:10:18;3.80;99.90
52459;DHT22;38372;52.902;6.024;2024-03-23T05:12:44;3.80;99.90
52459;DHT22;38372;52.902;6.024;2024-03-23T05:15:11;3.80;99.90
52459;DHT22;38372;52.902;6.024;2024-03-23T05:17:43;3.80;99.90
52459;DHT22;38372;52.902;6.024;2024-03-23T05:20:09;3.80;99.90
52459;DHT22;38372;52.902;6.024;2024-03-23T05:22:39;3.80;99.90
52459;DHT22;38372;52.902;6.024;2024-03-23T05:25:05;3.90;99.90
52459;DHT22;38372;52.902;6.024;2024-03-23T05:27:34;3.90;99.90
52459;DHT22;38372;52.902;6.024;2024-03-23T05:30:00;4.10;99.90
52459;DHT22;38372;52.902;6.024;2024-03-23T05:32:26;4.30;99.90
52459;DHT22;38372;52.902;6.024;2024-03-23T05:34:51;4.40;99.90
52459;DHT22;38372;52.902;6.024;2024-03-23T05:37:22;4.50;99.90
52459;DHT22;38372;52.902;6.024;2024-03-23T05:39:48;4.60;99.90
52459;DHT22;38372;52.902;6.024;2024-03-23T05:42:16;4.70;99.90
52459;DHT22;38372;52.902;6.024;2024-03-23T05:44:46;4.90;99.90
52459;DHT22;38372;52.902;6.024;2024-03-23T05:47:12;5.20;99.90
52459;DHT22;38372;52.902;6.024;2024-03-23T05:49:46;5.30;99.90
52459;DHT22;38372;52.902;6.024;2024-03-23T05:52:12;5.40;99.90
52459;DHT22;38372;52.902;6.024;2024-03-23T05:54:38;5.50;99.90
52459;DHT22;38372;52.902;6.024;2024-03-23T05:57:04;5.40;99.90
52459;DHT22;38372;52.902;6.024;2024-03-23T05:59:30;5.40;99.90
52459;DHT22;38372;52.902;6.024;2024-03-23T06:01:57;5.40;99.90
52459;DHT22;38372;52.902;6.024;2024-03-23T06:04:23;5.30;99.90
52459;DHT22;38372;52.902;6.024;2024-03-23T06:06:49;5.30;99.90
52459;DHT22;38372;52.902;6.024;2024-03-23T06:09:15;5.30;99.90
52459;DHT22;38372;52.902;6.024;2024-03-23T06:11:41;5.40;99.90
52459;DHT22;38372;52.902;6.024;2024-03-23T06:14:10;5.50;99.90
52459;DHT22;38372;52.902;6.024;2024-03-23T06:16:36;5.50;99.90
52459;DHT22;38372;52.902;6.024;2024-03-23T06:19:09;5.60;99.90
52459;DHT22;38372;52.902;6.024;2024-03-23T06:21:44;5.60;99.90
52459;DHT22;38372;52.902;6.024;2024-03-23T06:24:11;5.70;99.90
52459;DHT22;38372;52.902;6.024;2024-03-23T06:26:37;5.70;99.90
52459;DHT22;38372;52.902;6.024;2024-03-23T06:29:03;5.70;99.90
52459;DHT22;38372;52.902;6.024;2024-03-23T06:31:31;5.80;99.90
52459;DHT22;38372;52.902;6.024;2024-03-23T06:33:57;5.80;99.90
52459;DHT22;38372;52.902;6.024;2024-03-23T06:36:22;5.80;99.90
52459;DHT22;38372;52.902;6.024;2024-03-23T06:38:48;5.90;99.90
52459;DHT22;38372;52.902;6.024;2024-03-23T06:41:15;5.90;99.90
52459;DHT22;38372;52.902;6.024;2024-03-23T06:43:41;6.00;99.90
52459;DHT22;38372;52.902;6.024;2024-03-23T06:46:13;6.10;99.90
52459;DHT22;38372;52.902;6.024;2024-03-23T06:48:39;6.10;99.90
52459;DHT22;38372;52.902;6.024;2024-03-23T06:51:05;6.20;99.90
52459;DHT22;38372;52.902;6.024;2024-03-23T06:53:35;6.20;99.90
52459;DHT22;38372;52.902;6.024;2024-03-23T06:56:04;6.20;99.90
52459;DHT22;38372;52.902;6.024;2024-03-23T06:58:32;6.10;99.90
52459;DHT22;38372;52.902;6.024;2024-03-23T07:01:20;6.00;99.90
52459;DHT22;38372;52.902;6.024;2024-03-23T07:03:47;5.90;99.90
52459;DHT22;38372;52.902;6.024;2024-03-23T07:06:13;5.90;99.90
52459;DHT22;38372;52.902;6.024;2024-03-23T07:08:38;5.90;99.90
52459;DHT22;38372;52.902;6.024;2024-03-23T07:11:06;5.90;99.90
52459;DHT22;38372;52.902;6.024;2024-03-23T07:13:33;6.00;99.90
52459;DHT22;38372;52.902;6.024;2024-03-23T07:16:03;5.90;99.90
52459;DHT22;38372;52.902;6.024;2024-03-23T07:18:36;5.50;99.90
52459;DHT22;38372;52.902;6.024;2024-03-23T07:21:02;5.10;99.90
52459;DHT22;38372;52.902;6.024;2024-03-23T07:23:29;5.00;99.90
52459;DHT22;38372;52.902;6.024;2024-03-23T07:26:04;4.90;99.90
52459;DHT22;38372;52.902;6.024;2024-03-23T07:28:31;4.80;99.90
52459;DHT22;38372;52.902;6.024;2024-03-23T07:31:08;4.70;99.90
52459;DHT22;38372;52.902;6.024;2024-03-23T07:33:36;4.70;99.90
52459;DHT22;38372;52.902;6.024;2024-03-23T07:36:24;4.80;99.90
52459;DHT22;38372;52.902;6.024;2024-03-23T07:38:50;4.80;99.90
52459;DHT22;38372;52.902;6.024;2024-03-23T07:41:19;4.90;99.90
52459;DHT22;38372;52.902;6.024;2024-03-23T07:43:47;4.90;99.90
52459;DHT22;38372;52.902;6.024;2024-03-23T07:46:13;5.00;99.90
52459;DHT22;38372;52.902;6.024;2024-03-23T07:48:39;4.90;99.90
52459;DHT22;38372;52.902;6.024;2024-03-23T07:51:09;4.80;99.90
52459;DHT22;38372;52.902;6.024;2024-03-23T07:57:18;4.70;99.90
52459;DHT22;38372;52.902;6.024;2024-03-23T07:59:44;4.70;99.90
52459;DHT22;38372;52.902;6.024;2024-03-23T08:02:10;4.80;99.90
52459;DHT22;38372;52.902;6.024;2024-03-23T08:04:37;5.00;99.90
52459;DHT22;38372;52.902;6.024;2024-03-23T08:07:06;5.20;99.90
52459;DHT22;38372;52.902;6.024;2024-03-23T08:09:32;5.40;99.90
52459;DHT22;38372;52.902;6.024;2024-03-23T08:11:57;5.60;99.90
52459;DHT22;38372;52.902;6.024;2024-03-23T08:14:23;5.80;99.90
52459;DHT22;38372;52.902;6.024;2024-03-23T08:16:50;6.00;99.90
52459;DHT22;38372;52.902;6.024;2024-03-23T08:19:38;6.20;99.90
52459;DHT22;38372;52.902;6.024;2024-03-23T08:22:12;6.30;99.90
52459;DHT22;38372;52.902;6.024;2024-03-23T08:24:38;6.40;99.90
52459;DHT22;38372;52.902;6.024;2024-03-23T08:27:04;6.50;99.90
52459;DHT22;38372;52.902;6.024;2024-03-23T08:29:33;6.40;99.90
52459;DHT22;38372;52.902;6.024;2024-03-23T08:32:00;6.40;99.90
52459;DHT22;38372;52.902;6.024;2024-03-23T08:34:26;6.30;99.90
52459;DHT22;38372;52.902;6.024;2024-03-23T08:36:52;6.30;99.90
52459;DHT22;38372;52.902;6.024;2024-03-23T08:39:18;6.40;99.90
52459;DHT22;38372;52.902;6.024;2024-03-23T08:41:44;6.50;99.90
52459;DHT22;38372;52.902;6.024;2024-03-23T08:44:11;6.40;99.90
52459;DHT22;38372;52.902;6.024;2024-03-23T08:46:37;6.50;99.90
52459;DHT22;38372;52.902;6.024;2024-03-23T08:49:03;7.20;99.90
52459;DHT22;38372;52.902;6.024;2024-03-23T08:51:30;8.20;99.90
52459;DHT22;38372;52.902;6.024;2024-03-23T08:53:56;9.30;99.90
52459;DHT22;38372;52.902;6.024;2024-03-23T08:56:22;9.90;99.90
52459;DHT22;38372;52.902;6.024;2024-03-23T08:58:48;10.10;99.90
52459;DHT22;38372;52.902;6.024;2024-03-23T09:01:14;9.50;99.90
52459;DHT22;38372;52.902;6.024;2024-03-23T09:03:41;8.90;99.90
52459;DHT22;38372;52.902;6.024;2024-03-23T09:06:12;8.40;99.90
52459;DHT22;38372;52.902;6.024;2024-03-23T09:08:38;8.00;99.90
52459;DHT22;38372;52.902;6.024;2024-03-23T09:11:11;7.70;99.90
52459;DHT22;38372;52.902;6.024;2024-03-23T09:13:38;7.50;99.90
52459;DHT22;38372;52.902;6.024;2024-03-23T09:16:05;7.40;99.90
52459;DHT22;38372;52.902;6.024;2024-03-23T09:18:32;7.30;99.90
52459;DHT22;38372;52.902;6.024;2024-03-23T09:21:14;7.30;99.90
52459;DHT22;38372;52.902;6.024;2024-03-23T09:23:43;7.10;99.90
52459;DHT22;38372;52.902;6.024;2024-03-23T09:26:11;7.00;99.90
52459;DHT22;38372;52.902;6.024;2024-03-23T09:28:37;6.80;99.90
52459;DHT22;38372;52.902;6.024;2024-03-23T09:31:06;6.70;99.90
52459;DHT22;38372;52.902;6.024;2024-03-23T09:33:33;6.60;99.90
52459;DHT22;38372;52.902;6.024;2024-03-23T09:36:03;6.70;99.90
52459;DHT22;38372;52.902;6.024;2024-03-23T09:38:29;7.20;99.90
52459;DHT22;38372;52.902;6.024;2024-03-23T09:40:57;7.50;99.90
52459;DHT22;38372;52.902;6.024;2024-03-23T09:43:23;7.60;99.90
52459;DHT22;38372;52.902;6.024;2024-03-23T09:45:49;7.40;99.90
52459;DHT22;38372;52.902;6.024;2024-03-23T09:48:25;7.10;99.90
52459;DHT22;38372;52.902;6.024;2024-03-23T09:50:51;6.80;99.90
52459;DHT22;38372;52.902;6.024;2024-03-23T09:53:17;6.80;99.90
52459;DHT22;38372;52.902;6.024;2024-03-23T09:55:44;7.10;99.90
52459;DHT22;38372;52.902;6.024;2024-03-23T09:58:16;8.20;99.90
52459;DHT22;38372;52.902;6.024;2024-03-23T10:00:42;9.40;99.90
52459;DHT22;38372;52.902;6.024;2024-03-23T10:03:08;10.60;99.90
52459;DHT22;38372;52.902;6.024;2024-03-23T10:05:36;11.00;99.90
52459;DHT22;38372;52.902;6.024;2024-03-23T10:10:44;11.30;99.90
52459;DHT22;38372;52.902;6.024;2024-03-23T10:13:11;11.10;99.90
52459;DHT22;38372;52.902;6.024;2024-03-23T10:15:38;11.40;99.90
52459;DHT22;38372;52.902;6.024;2024-03-23T10:18:18;11.00;99.90
52459;DHT22;38372;52.902;6.024;2024-03-23T10:21:00;9.80;99.90
52459;DHT22;38372;52.902;6.024;2024-03-23T10:23:38;8.60;99.90
52459;DHT22;38372;52.902;6.024;2024-03-23T10:26:19;7.60;99.90
52459;DHT22;38372;52.902;6.024;2024-03-23T10:28:58;7.00;99.90
52459;DHT22;38372;52.902;6.024;2024-03-23T10:31:31;6.70;99.90
52459;DHT22;38372;52.902;6.024;2024-03-23T10:33:57;6.40;99.90
52459;DHT22;38372;52.902;6.024;2024-03-23T10:36:24;6.30;99.90
52459;DHT22;38372;52.902;6.024;2024-03-23T10:38:52;6.30;99.90
52459;DHT22;38372;52.902;6.024;2024-03-23T10:41:18;6.80;99.90
52459;DHT22;38372;52.902;6.024;2024-03-23T10:43:49;7.50;99.90
52459;DHT22;38372;52.902;6.024;2024-03-23T10:46:15;7.70;99.90
52459;DHT22;38372;52.902;6.024;2024-03-23T10:48:41;7.50;99.90
52459;DHT22;38372;52.902;6.024;2024-03-23T10:51:09;7.10;99.90
52459;DHT22;38372;52.902;6.024;2024-03-23T10:53:35;6.90;99.90
52459;DHT22;38372;52.902;6.024;2024-03-23T10:56:02;7.00;99.90
52459;DHT22;38372;52.902;6.024;2024-03-23T10:58:46;7.50;99.90
52459;DHT22;38372;52.902;6.024;2024-03-23T11:01:13;7.50;99.90
52459;DHT22;38372;52.902;6.024;2024-03-23T11:03:44;7.10;99.90
52459;DHT22;38372;52.902;6.024;2024-03-23T11:06:10;6.80;99.90
52459;DHT22;38372;52.902;6.024;2024-03-23T11:08:40;6.70;99.90
52459;DHT22;38372;52.902;6.024;2024-03-23T11:11:23;6.80;99.90
52459;DHT22;38372;52.902;6.024;2024-03-23T11:13:52;7.40;99.90
52459;DHT22;38372;52.902;6.024;2024-03-23T11:16:28;8.30;99.90
52459;DHT22;38372;52.902;6.024;2024-03-23T11:19:37;9.00;99.90
52459;DHT22;38372;52.902;6.024;2024-03-23T11:22:05;9.60;99.90
52459;DHT22;38372;52.902;6.024;2024-03-23T11:24:31;10.00;99.90
52459;DHT22;38372;52.902;6.024;2024-03-23T11:26:57;10.40;99.90
52459;DHT22;38372;52.902;6.024;2024-03-23T11:29:29;10.50;99.90
52459;DHT22;38372;52.902;6.024;2024-03-23T11:31:55;10.10;99.90
52459;DHT22;38372;52.902;6.024;2024-03-23T11:34:22;9.50;99.90
52459;DHT22;38372;52.902;6.024;2024-03-23T11:36:48;8.80;99.90
52459;DHT22;38372;52.902;6.024;2024-03-23T11:39:20;8.30;99.90
52459;DHT22;38372;52.902;6.024;2024-03-23T11:41:56;7.90;99.90
52459;DHT22;38372;52.902;6.024;2024-03-23T11:44:24;7.70;99.90
52459;DHT22;38372;52.902;6.024;2024-03-23T11:47:06;7.60;99.90
52459;DHT22;38372;52.902;6.024;2024-03-23T11:49:32;7.90;99.90
52459;DHT22;38372;52.902;6.024;2024-03-23T11:52:05;8.20;99.90
52459;DHT22;38372;52.902;6.024;2024-03-23T11:54:30;8.40;99.90
52459;DHT22;38372;52.902;6.024;2024-03-23T11:57:01;8.70;99.90
52459;DHT22;38372;52.902;6.024;2024-03-23T11:59:37;8.70;99.90
52459;DHT22;38372;52.902;6.024;2024-03-23T12:02:10;8.40;99.90
52459;DHT22;38372;52.902;6.024;2024-03-23T12:04:40;7.90;99.90
52459;DHT22;38372;52.902;6.024;2024-03-23T12:07:19;7.60;99.90
52459;DHT22;38372;52.902;6.024;2024-03-23T12:10:04;7.60;99.90
52459;DHT22;38372;52.902;6.024;2024-03-23T12:12:32;8.10;99.90
52459;DHT22;38372;52.902;6.024;2024-03-23T12:15:08;8.80;99.90
52459;DHT22;38372;52.902;6.024;2024-03-23T12:17:34;9.40;99.90
52459;DHT22;38372;52.902;6.024;2024-03-23T12:20:21;9.80;99.90
52459;DHT22;38372;52.902;6.024;2024-03-23T12:22:46;9.90;99.90
52459;DHT22;38372;52.902;6.024;2024-03-23T12:25:12;10.00;99.90
52459;DHT22;38372;52.902;6.024;2024-03-23T12:27:38;9.90;99.90
52459;DHT22;38372;52.902;6.024;2024-03-23T12:30:04;9.80;99.90
52459;DHT22;38372;52.902;6.024;2024-03-23T12:32:30;10.00;99.90
52459;DHT22;38372;52.902;6.024;2024-03-23T12:34:56;9.90;99.90
52459;DHT22;38372;52.902;6.024;2024-03-23T12:37:21;10.00;99.90
52459;DHT22;38372;52.902;6.024;2024-03-23T12:39:47;10.10;99.90
52459;DHT22;38372;52.902;6.024;2024-03-23T12:42:13;10.40;99.90
52459;DHT22;38372;52.902;6.024;2024-03-23T12:44:39;10.60;99.90
52459;DHT22;38372;52.902;6.024;2024-03-23T12:47:05;10.60;99.90
52459;DHT22;38372;52.902;6.024;2024-03-23T12:49:31;10.50;99.90
52459;DHT22;38372;52.902;6.024;2024-03-23T12:51:57;10.30;99.90
52459;DHT22;38372;52.902;6.024;2024-03-23T12:54:24;9.90;99.90
52459;DHT22;38372;52.902;6.024;2024-03-23T12:56:50;9.60;99.90
52459;DHT22;38372;52.902;6.024;2024-03-23T12:59:16;9.40;99.90
52459;DHT22;38372;52.902;6.024;2024-03-23T13:01:44;9.60;99.90
52459;DHT22;38372;52.902;6.024;2024-03-23T13:04:10;9.70;99.90
52459;DHT22;38372;52.902;6.024;2024-03-23T13:06:36;9.90;99.90
52459;DHT22;38372;52.902;6.024;2024-03-23T13:09:02;10.00;99.90
52459;DHT22;38372;52.902;6.024;2024-03-23T13:11:31;10.00;99.90
52459;DHT22;38372;52.902;6.024;2024-03-23T13:13:57;9.90;99.90
52459;DHT22;38372;52.902;6.024;2024-03-23T13:16:23;9.60;99.90
52459;DHT22;38372;52.902;6.024;2024-03-23T13:18:49;9.30;99.90
52459;DHT22;38372;52.902;6.024;2024-03-23T13:21:22;9.10;99.90
52459;DHT22;38372;52.902;6.024;2024-03-23T13:23:48;8.80;99.90
52459;DHT22;38372;52.902;6.024;2024-03-23T13:26:15;8.60;99.90
52459;DHT22;38372;52.902;6.024;2024-03-23T13:28:41;8.50;99.90
52459;DHT22;38372;52.902;6.024;2024-03-23T13:31:07;8.40;99.90
52459;DHT22;38372;52.902;6.024;2024-03-23T13:33:34;8.50;99.90
52459;DHT22;38372;52.902;6.024;2024-03-23T13:36:00;8.60;99.90
52459;DHT22;38372;52.902;6.024;2024-03-23T13:38:26;8.60;99.90
52459;DHT22;38372;52.902;6.024;2024-03-23T13:40:59;8.50;99.90
52459;DHT22;38372;52.902;6.024;2024-03-23T13:43:27;8.50;99.90
52459;DHT22;38372;52.902;6.024;2024-03-23T13:45:55;8.60;99.90
52459;DHT22;38372;52.902;6.024;2024-03-23T13:48:37;8.90;99.90
52459;DHT22;38372;52.902;6.024;2024-03-23T13:51:04;9.10;99.90
52459;DHT22;38372;52.902;6.024;2024-03-23T13:53:30;9.30;99.90
52459;DHT22;38372;52.902;6.024;2024-03-23T13:55:58;9.30;99.90
52459;DHT22;38372;52.902;6.024;2024-03-23T13:58:30;9.20;99.90
52459;DHT22;38372;52.902;6.024;2024-03-23T14:00:59;9.10;99.90
52459;DHT22;38372;52.902;6.024;2024-03-23T14:03:24;9.00;99.90
52459;DHT22;38372;52.902;6.024;2024-03-23T14:05:50;8.80;99.90
52459;DHT22;38372;52.902;6.024;2024-03-23T14:08:18;8.80;99.90
52459;DHT22;38372;52.902;6.024;2024-03-23T14:10:44;8.80;99.90
52459;DHT22;38372;52.902;6.024;2024-03-23T14:13:10;8.70;99.90
52459;DHT22;38372;52.902;6.024;2024-03-23T14:15:35;8.50;99.90
52459;DHT22;38372;52.902;6.024;2024-03-23T14:18:04;7.90;99.90
52459;DHT22;38372;52.902;6.024;2024-03-23T14:20:37;7.50;99.90
52459;DHT22;38372;52.902;6.024;2024-03-23T14:23:04;7.20;99.90
52459;DHT22;38372;52.902;6.024;2024-03-23T14:25:31;7.00;99.90
52459;DHT22;38372;52.902;6.024;2024-03-23T14:27:58;6.90;99.90
52459;DHT22;38372;52.902;6.024;2024-03-23T14:30:23;7.00;99.90
52459;DHT22;38372;52.902;6.024;2024-03-23T14:32:49;7.40;99.90
52459;DHT22;38372;52.902;6.024;2024-03-23T14:35:16;8.00;99.90
52459;DHT22;38372;52.902;6.024;2024-03-23T14:37:42;8.40;99.90
52459;DHT22;38372;52.902;6.024;2024-03-23T14:40:08;8.60;99.90
52459;DHT22;38372;52.902;6.024;2024-03-23T14:42:34;8.80;99.90
52459;DHT22;38372;52.902;6.024;2024-03-23T14:45:00;9.10;99.90
52459;DHT22;38372;52.902;6.024;2024-03-23T14:47:26;9.30;99.90
52459;DHT22;38372;52.902;6.024;2024-03-23T14:49:52;9.40;99.90
52459;DHT22;38372;52.902;6.024;2024-03-23T14:52:18;9.80;99.90
52459;DHT22;38372;52.902;6.024;2024-03-23T14:54:44;9.60;99.90
52459;DHT22;38372;52.902;6.024;2024-03-23T14:57:10;9.30;99.90
52459;DHT22;38372;52.902;6.024;2024-03-23T14:59:36;8.90;99.90
52459;DHT22;38372;52.902;6.024;2024-03-23T15:02:04;8.50;99.90
52459;DHT22;38372;52.902;6.024;2024-03-23T15:04:30;8.00;99.90
52459;DHT22;38372;52.902;6.024;2024-03-23T15:07:07;7.60;99.90
52459;DHT22;38372;52.902;6.024;2024-03-23T15:09:37;7.40;99.90
52459;DHT22;38372;52.902;6.024;2024-03-23T15:12:10;7.20;99.90
52459;DHT22;38372;52.902;6.024;2024-03-23T15:14:48;7.20;99.90
52459;DHT22;38372;52.902;6.024;2024-03-23T15:17:22;7.20;99.90
52459;DHT22;38372;52.902;6.024;2024-03-23T15:20:06;7.30;99.90
52459;DHT22;38372;52.902;6.024;2024-03-23T15:22:32;7.30;99.90
52459;DHT22;38372;52.902;6.024;2024-03-23T15:24:58;7.40;99.90
52459;DHT22;38372;52.902;6.024;2024-03-23T15:27:23;8.20;99.90
52459;DHT22;38372;52.902;6.024;2024-03-23T15:29:49;9.30;99.90
52459;DHT22;38372;52.902;6.024;2024-03-23T15:32:15;10.20;99.90
52459;DHT22;38372;52.902;6.024;2024-03-23T15:34:43;10.20;99.90
52459;DHT22;38372;52.902;6.024;2024-03-23T15:37:08;9.60;99.90
52459;DHT22;38372;52.902;6.024;2024-03-23T15:39:34;9.00;99.90
52459;DHT22;38372;52.902;6.024;2024-03-23T15:42:00;8.60;99.90
52459;DHT22;38372;52.902;6.024;2024-03-23T15:44:25;8.30;99.90
52459;DHT22;38372;52.902;6.024;2024-03-23T15:46:51;8.10;99.90
52459;DHT22;38372;52.902;6.024;2024-03-23T15:49:17;7.90;99.90
52459;DHT22;38372;52.902;6.024;2024-03-23T15:51:43;7.60;99.90
52459;DHT22;38372;52.902;6.024;2024-03-23T15:54:09;7.60;99.90
52459;DHT22;38372;52.902;6.024;2024-03-23T15:56:35;8.40;99.90
52459;DHT22;38372;52.902;6.024;2024-03-23T15:59:01;9.20;99.90
52459;DHT22;38372;52.902;6.024;2024-03-23T16:01:33;9.70;99.90
52459;DHT22;38372;52.902;6.024;2024-03-23T16:04:01;10.10;99.90
52459;DHT22;38372;52.902;6.024;2024-03-23T16:06:27;10.00;99.90
52459;DHT22;38372;52.902;6.024;2024-03-23T16:08:53;10.20;99.90
52459;DHT22;38372;52.902;6.024;2024-03-23T16:11:18;10.00;99.90
52459;DHT22;38372;52.902;6.024;2024-03-23T16:13:45;9.40;99.90
52459;DHT22;38372;52.902;6.024;2024-03-23T16:16:12;8.80;99.90
52459;DHT22;38372;52.902;6.024;2024-03-23T16:18:44;8.50;99.90
52459;DHT22;38372;52.902;6.024;2024-03-23T16:21:11;8.30;99.90
52459;DHT22;38372;52.902;6.024;2024-03-23T16:23:37;8.50;99.90
52459;DHT22;38372;52.902;6.024;2024-03-23T16:26:03;9.10;99.90
52459;DHT22;38372;52.902;6.024;2024-03-23T16:28:32;9.50;99.90
52459;DHT22;38372;52.902;6.024;2024-03-23T16:31:05;9.60;99.90
52459;DHT22;38372;52.902;6.024;2024-03-23T16:33:37;9.40;99.90
52459;DHT22;38372;52.902;6.024;2024-03-23T16:36:05;9.20;99.90
52459;DHT22;38372;52.902;6.024;2024-03-23T16:38:32;9.00;99.90
52459;DHT22;38372;52.902;6.024;2024-03-23T16:41:06;8.80;99.90
52459;DHT22;38372;52.902;6.024;2024-03-23T16:43:33;8.50;99.90
52459;DHT22;38372;52.902;6.024;2024-03-23T16:46:06;8.20;99.90
52459;DHT22;38372;52.902;6.024;2024-03-23T16:48:33;7.90;99.90
52459;DHT22;38372;52.902;6.024;2024-03-23T16:51:00;7.70;99.90